sensor_id;sensor_type;location;lat;lon;timestamp;P1;durP1;ratioP1;P2;durP2;ratioP2
40757;SDS011;26462;47.384;19.218;2023-02-05T00:15:38;2.70;;;1.30;;
40757;SDS011;26462;47.384;19.218;2023-02-05T00:52:57;4.50;;;0.90;;
40757;SDS011;26462;47.384;19.218;2023-02-05T07:01:58;4.43;;;1.15;;
40757;SDS011;26462;47.384;19.218;2023-02-05T07:07:17;7.57;;;1.80;;
40757;SDS011;26462;47.384;19.218;2023-02-05T07:09:45;7.93;;;2.28;;
40757;SDS011;26462;47.384;19.218;2023-02-05T07:12:13;8.73;;;3.05;;
40757;SDS011;26462;47.384;19.218;2023-02-05T07:14:42;6.88;;;2.00;;
40757;SDS011;26462;47.384;19.218;2023-02-05T07:17:10;5.28;;;1.30;;
40757;SDS011;26462;47.384;19.218;2023-02-05T07:19:37;10.95;;;2.42;;
40757;SDS011;26462;47.384;19.218;2023-02-05T07:22:04;4.68;;;1.02;;
40757;SDS011;26462;47.384;19.218;2023-02-05T07:24:31;5.78;;;1.20;;
40757;SDS011;26462;47.384;19.218;2023-02-05T07:26:59;7.75;;;1.70;;
40757;SDS011;26462;47.384;19.218;2023-02-05T07:29:29;7.10;;;1.70;;
40757;SDS011;26462;47.384;19.218;2023-02-05T07:32:17;1.63;;;0.20;;
40757;SDS011;26462;47.384;19.218;2023-02-05T07:34:51;2.38;;;0.70;;
40757;SDS011;26462;47.384;19.218;2023-02-05T07:37:28;1.88;;;0.50;;
40757;SDS011;26462;47.384;19.218;2023-02-05T07:39:55;3.28;;;1.02;;
40757;SDS011;26462;47.384;19.218;2023-02-05T07:42:22;2.30;;;0.60;;
40757;SDS011;26462;47.384;19.218;2023-02-05T07:44:57;1.52;;;0.40;;
40757;SDS011;26462;47.384;19.218;2023-02-05T07:47:33;2.60;;;0.80;;
40757;SDS011;26462;47.384;19.218;2023-02-05T07:50:00;2.28;;;0.52;;
40757;SDS011;26462;47.384;19.218;2023-02-05T07:52:30;5.55;;;1.55;;
40757;SDS011;26462;47.384;19.218;2023-02-05T07:58:07;6.15;;;1.30;;
40757;SDS011;26462;47.384;19.218;2023-02-05T08:00:42;3.17;;;0.98;;
40757;SDS011;26462;47.384;19.218;2023-02-05T08:03:33;2.17;;;0.65;;
40757;SDS011;26462;47.384;19.218;2023-02-05T08:06:04;5.47;;;1.17;;
40757;SDS011;26462;47.384;19.218;2023-02-05T08:08:33;4.75;;;1.40;;
40757;SDS011;26462;47.384;19.218;2023-02-05T08:11:01;10.57;;;1.98;;
40757;SDS011;26462;47.384;19.218;2023-02-05T08:13:30;8.25;;;1.63;;
40757;SDS011;26462;47.384;19.218;2023-02-05T08:15:58;2.50;;;0.90;;
40757;SDS011;26462;47.384;19.218;2023-02-05T08:18:36;2.80;;;0.70;;
40757;SDS011;26462;47.384;19.218;2023-02-05T08:21:05;4.28;;;1.30;;
40757;SDS011;26462;47.384;19.218;2023-02-05T08:23:39;3.10;;;0.80;;
40757;SDS011;26462;47.384;19.218;2023-02-05T08:26:06;4.85;;;1.50;;
40757;SDS011;26462;47.384;19.218;2023-02-05T08:28:34;4.13;;;1.25;;
40757;SDS011;26462;47.384;19.218;2023-02-05T08:31:01;6.45;;;1.50;;
40757;SDS011;26462;47.384;19.218;2023-02-05T08:33:42;5.78;;;1.55;;
40757;SDS011;26462;47.384;19.218;2023-02-05T08:36:11;2.78;;;0.70;;
40757;SDS011;26462;47.384;19.218;2023-02-05T08:38:38;5.25;;;0.57;;
40757;SDS011;26462;47.384;19.218;2023-02-05T08:46:58;4.63;;;1.50;;
40757;SDS011;26462;47.384;19.218;2023-02-05T08:49:27;5.45;;;1.95;;
40757;SDS011;26462;47.384;19.218;2023-02-05T08:52:01;2.67;;;0.73;;
40757;SDS011;26462;47.384;19.218;2023-02-05T08:54:36;3.13;;;0.50;;
40757;SDS011;26462;47.384;19.218;2023-02-05T08:57:04;4.70;;;1.10;;
40757;SDS011;26462;47.384;19.218;2023-02-05T08:59:34;1.70;;;0.40;;
40757;SDS011;26462;47.384;19.218;2023-02-05T09:05:13;1.42;;;0.40;;
40757;SDS011;26462;47.384;19.218;2023-02-05T09:07:40;1.98;;;0.40;;
40757;SDS011;26462;47.384;19.218;2023-02-05T09:16:19;6.53;;;1.58;;
40757;SDS011;26462;47.384;19.218;2023-02-05T09:18:46;10.20;;;3.53;;
40757;SDS011;26462;47.384;19.218;2023-02-05T09:21:14;2.92;;;1.02;;
40757;SDS011;26462;47.384;19.218;2023-02-05T09:23:42;2.13;;;0.70;;
40757;SDS011;26462;47.384;19.218;2023-02-05T09:33:29;13.27;;;5.57;;
40757;SDS011;26462;47.384;19.218;2023-02-05T09:35:57;5.60;;;2.00;;
40757;SDS011;26462;47.384;19.218;2023-02-05T09:43:45;13.48;;;4.68;;
40757;SDS011;26462;47.384;19.218;2023-02-05T09:46:43;4.88;;;1.63;;
40757;SDS011;26462;47.384;19.218;2023-02-05T09:49:20;10.10;;;3.10;;
40757;SDS011;26462;47.384;19.218;2023-02-05T09:52:21;5.47;;;2.92;;
40757;SDS011;26462;47.384;19.218;2023-02-05T09:54:53;5.90;;;1.48;;
40757;SDS011;26462;47.384;19.218;2023-02-05T09:57:32;9.73;;;3.83;;
40757;SDS011;26462;47.384;19.218;2023-02-05T10:17:13;9.23;;;3.15;;
40757;SDS011;26462;47.384;19.218;2023-02-05T10:20:11;6.50;;;2.85;;
40757;SDS011;26462;47.384;19.218;2023-02-05T10:34:26;6.88;;;3.47;;
40757;SDS011;26462;47.384;19.218;2023-02-05T10:36:57;2.35;;;0.57;;
40757;SDS011;26462;47.384;19.218;2023-02-05T10:39:41;5.03;;;1.45;;
40757;SDS011;26462;47.384;19.218;2023-02-05T10:42:30;25.58;;;12.27;;
40757;SDS011;26462;47.384;19.218;2023-02-05T10:54:26;2.60;;;0.77;;
40757;SDS011;26462;47.384;19.218;2023-02-05T10:56:55;3.80;;;0.73;;
40757;SDS011;26462;47.384;19.218;2023-02-05T10:59:28;3.03;;;1.42;;
40757;SDS011;26462;47.384;19.218;2023-02-05T11:02:02;2.65;;;0.90;;
40757;SDS011;26462;47.384;19.218;2023-02-05T11:04:38;11.45;;;5.38;;
40757;SDS011;26462;47.384;19.218;2023-02-05T11:07:25;5.22;;;1.67;;
40757;SDS011;26462;47.384;19.218;2023-02-05T11:10:14;5.28;;;1.95;;
40757;SDS011;26462;47.384;19.218;2023-02-05T11:12:48;5.32;;;1.52;;
40757;SDS011;26462;47.384;19.218;2023-02-05T11:15:30;5.22;;;1.80;;
40757;SDS011;26462;47.384;19.218;2023-02-05T11:18:02;13.50;;;5.50;;
40757;SDS011;26462;47.384;19.218;2023-02-05T11:20:38;4.15;;;1.50;;
40757;SDS011;26462;47.384;19.218;2023-02-05T11:23:13;15.93;;;7.22;;
40757;SDS011;26462;47.384;19.218;2023-02-05T11:38:46;4.95;;;2.70;;
40757;SDS011;26462;47.384;19.218;2023-02-05T11:41:33;35.75;;;11.48;;
40757;SDS011;26462;47.384;19.218;2023-02-05T11:44:19;3.17;;;1.13;;
40757;SDS011;26462;47.384;19.218;2023-02-05T11:50:20;5.68;;;2.28;;
40757;SDS011;26462;47.384;19.218;2023-02-05T11:52:51;4.63;;;2.40;;
40757;SDS011;26462;47.384;19.218;2023-02-05T11:55:23;3.35;;;1.75;;
40757;SDS011;26462;47.384;19.218;2023-02-05T11:58:03;3.50;;;1.63;;
40757;SDS011;26462;47.384;19.218;2023-02-05T12:00:38;5.35;;;1.67;;
40757;SDS011;26462;47.384;19.218;2023-02-05T12:03:27;4.25;;;0.95;;
40757;SDS011;26462;47.384;19.218;2023-02-05T12:19:20;4.70;;;2.40;;
40757;SDS011;26462;47.384;19.218;2023-02-05T12:36:42;6.95;;;2.38;;
40757;SDS011;26462;47.384;19.218;2023-02-05T12:39:31;10.15;;;3.90;;
40757;SDS011;26462;47.384;19.218;2023-02-05T12:42:23;4.43;;;1.63;;
40757;SDS011;26462;47.384;19.218;2023-02-05T12:45:23;3.00;;;1.10;;
40757;SDS011;26462;47.384;19.218;2023-02-05T12:57:45;3.08;;;1.30;;
40757;SDS011;26462;47.384;19.218;2023-02-05T13:10:26;12.48;;;6.28;;
40757;SDS011;26462;47.384;19.218;2023-02-05T13:16:50;3.73;;;0.77;;
40757;SDS011;26462;47.384;19.218;2023-02-05T13:32:59;47.03;;;15.07;;
40757;SDS011;26462;47.384;19.218;2023-02-05T13:35:40;42.95;;;12.80;;
40757;SDS011;26462;47.384;19.218;2023-02-05T13:38:24;5.55;;;2.85;;
40757;SDS011;26462;47.384;19.218;2023-02-05T13:55:35;3.03;;;1.25;;
40757;SDS011;26462;47.384;19.218;2023-02-05T13:58:17;2.85;;;1.33;;
40757;SDS011;26462;47.384;19.218;2023-02-05T14:00:54;4.57;;;2.03;;
40757;SDS011;26462;47.384;19.218;2023-02-05T14:03:32;2.95;;;1.00;;
40757;SDS011;26462;47.384;19.218;2023-02-05T14:43:25;8.70;;;3.00;;
40757;SDS011;26462;47.384;19.218;2023-02-05T15:14:54;32.22;;;12.23;;
40757;SDS011;26462;47.384;19.218;2023-02-05T15:31:01;7.72;;;3.17;;
40757;SDS011;26462;47.384;19.218;2023-02-05T15:33:44;10.00;;;4.03;;
40757;SDS011;26462;47.384;19.218;2023-02-05T15:39:56;101.45;;;36.22;;
40757;SDS011;26462;47.384;19.218;2023-02-05T15:42:30;102.80;;;41.67;;
40757;SDS011;26462;47.384;19.218;2023-02-05T15:45:22;134.13;;;48.90;;
40757;SDS011;26462;47.384;19.218;2023-02-05T15:48:00;61.25;;;22.95;;
40757;SDS011;26462;47.384;19.218;2023-02-05T15:50:46;67.10;;;26.58;;
40757;SDS011;26462;47.384;19.218;2023-02-05T15:53:36;29.52;;;11.57;;
40757;SDS011;26462;47.384;19.218;2023-02-05T15:56:24;24.83;;;9.30;;
40757;SDS011;26462;47.384;19.218;2023-02-05T16:01:41;30.35;;;10.65;;
40757;SDS011;26462;47.384;19.218;2023-02-05T16:04:15;34.47;;;11.65;;
40757;SDS011;26462;47.384;19.218;2023-02-05T17:17:18;13.88;;;5.20;;
40757;SDS011;26462;47.384;19.218;2023-02-05T18:29:50;6.40;;;3.25;;
40757;SDS011;26462;47.384;19.218;2023-02-05T18:32:24;8.52;;;3.03;;
40757;SDS011;26462;47.384;19.218;2023-02-05T18:37:58;7.78;;;3.80;;
40757;SDS011;26462;47.384;19.218;2023-02-05T18:40:28;12.68;;;3.63;;
40757;SDS011;26462;47.384;19.218;2023-02-05T18:43:23;7.65;;;3.33;;
